FMEP/ZSE METAR and TAF weather

Enter ICAO airport designator
Station Type Date Time Source
FMEP METAR 2020/06/06 21:30 UTC NOAA

FMEP 062130Z AUTO 05009KT 9999 FEW046 BKN058 20/11 Q1021


Station Type Date Time Source
FMEP Decoded METAR 2020/06/06 21:30 UTC NOAA

Saint-Pierre, Reunion (FMEP) 21-20S 055-29E 53M
Jun 06, 2020 - 05:30 PM EDT / 2020.06.06 2130 UTC
Wind: from the NE (050 degrees) at 10 MPH (9 KT):0
Visibility: greater than 7 mile(s):0
Sky conditions: mostly cloudy
Temperature: 68 F (20 C)
Dew Point: 51 F (11 C)
Relative Humidity: 56%
Pressure (altimeter): 30.15 in. Hg (1021 hPa)
ob: FMEP 062130Z AUTO 05009KT 9999 FEW046 BKN058 20/11 Q1021
cycle: 21

Station Type Date Time Source
FMEP TAF 2020/02/07 12:00 UTC NOAA

TAF FMEP 071100Z 0712/0721 11020KT 9999 FEW030
TEMPO 0712/0715 11020G30KT
BECMG 0715/0717 08008KT

Example: see airport list